createdAt,value
2023-04-10T04:57:39.573Z,91.02
2023-04-10T05:01:14.256Z,90.76
2023-04-10T05:04:47.602Z,90.78
2023-04-10T05:19:13.773Z,91.42
2023-04-10T05:21:40.650Z,91.33
2023-04-10T05:24:33.228Z,90.99
2023-04-10T05:27:02.760Z,91.01
2023-04-10T05:29:57.117Z,90.97
2023-04-10T05:59:27.120Z,86.58
2023-04-10T06:14:16.770Z,78.29
2023-04-10T08:41:45.686Z,47.81
2023-04-10T10:34:40.060Z,35.29
2023-04-10T10:38:06.940Z,35.20
2023-04-10T11:06:08.604Z,31.42
2023-04-10T11:09:46.934Z,32.66
2023-04-10T11:13:17.596Z,33.89
2023-04-10T11:16:17.117Z,33.90
2023-04-10T11:20:08.268Z,32.88
2023-04-10T11:24:16.342Z,33.96
2023-04-10T11:27:40.588Z,34.67
2023-04-10T11:31:23.514Z,33.95
2023-04-10T11:35:09.568Z,34.91
2023-04-10T11:39:16.510Z,36.01
2023-04-10T11:42:24.183Z,33.71
2023-04-10T11:46:24.819Z,33.29
2023-04-10T11:49:56.019Z,34.86
2023-04-10T11:53:36.014Z,36.34
2023-04-10T11:57:13.150Z,38.49
2023-04-10T12:01:04.096Z,39.51
2023-04-10T12:05:21.307Z,39.07
2023-04-10T12:08:29.437Z,36.90
2023-04-10T12:11:21.916Z,34.66
2023-04-10T12:14:59.170Z,33.21
2023-04-10T12:18:35.018Z,33.84
2023-04-10T12:22:28.727Z,34.96
2023-04-10T12:25:48.132Z,35.38
2023-04-10T13:00:09.293Z,38.13
2023-04-10T13:03:06.576Z,41.95
2023-04-10T13:06:27.439Z,42.64
2023-04-10T13:10:01.107Z,44.25
2023-04-10T13:13:42.068Z,46.57
2023-04-10T13:17:25.416Z,48.18
2023-04-10T13:21:25.346Z,49.87
2023-04-10T13:24:39.919Z,51.29
2023-04-10T13:28:45.425Z,52.85
2023-04-10T13:31:57.354Z,53.92
2023-04-10T13:35:40.462Z,56.43
2023-04-10T13:39:12.027Z,59.39
2023-04-10T13:42:51.472Z,62.51
2023-04-10T13:46:31.167Z,62.14
2023-04-10T13:50:08.448Z,61.89
2023-04-10T13:52:36.208Z,63.27
2023-04-10T13:55:06.493Z,64.29
2023-04-10T13:57:34.846Z,63.60
2023-04-10T14:00:04.274Z,64.14
2023-04-10T14:02:34.170Z,64.23
2023-04-10T14:05:15.369Z,64.16
2023-04-10T14:08:52.428Z,64.38
2023-04-10T14:12:51.616Z,64.00
2023-04-10T14:16:09.394Z,66.71
2023-04-10T14:18:37.637Z,69.24
2023-04-10T14:21:05.738Z,68.22
2023-04-10T14:23:33.473Z,68.46
2023-04-10T14:26:01.454Z,69.20
2023-04-10T14:28:29.295Z,68.49
2023-04-10T14:30:57.077Z,69.41
2023-04-10T14:33:24.965Z,70.04
2023-04-10T14:35:53.592Z,69.67
2023-04-10T14:40:09.955Z,66.19
2023-04-10T14:43:48.751Z,65.08
2023-04-10T14:47:25.918Z,54.13
2023-04-10T14:51:05.534Z,52.67
2023-04-10T14:54:43.331Z,53.42
2023-04-10T14:58:20.005Z,54.54
2023-04-10T15:01:57.957Z,54.98
2023-04-10T15:06:00.883Z,54.56
2023-04-10T15:09:15.316Z,54.91
2023-04-10T15:12:55.327Z,56.16
2023-04-10T15:16:35.311Z,55.71
2023-04-10T15:19:03.199Z,52.69
2023-04-10T15:25:57.878Z,40.83
2023-04-10T15:28:28.226Z,38.14
2023-04-10T15:32:51.054Z,34.97
2023-04-10T15:36:32.408Z,33.03
2023-04-10T15:40:10.688Z,31.50
2023-04-10T15:43:48.625Z,31.28
2023-04-10T15:47:26.889Z,32.07
2023-04-10T15:49:57.220Z,32.48
2023-04-10T15:52:25.350Z,32.78
2023-04-10T15:54:53.095Z,32.98
2023-04-10T15:57:20.941Z,33.50
2023-04-10T15:59:52.789Z,33.88
2023-04-10T16:02:21.111Z,33.71
2023-04-10T16:05:16.289Z,34.34
2023-04-10T16:07:44.166Z,34.53
2023-04-10T16:10:11.962Z,34.08
2023-04-10T16:15:17.123Z,35.23
2023-04-10T16:29:23.437Z,34.98
2023-04-10T16:32:10.798Z,35.36
2023-04-10T16:36:09.171Z,37.82
2023-04-10T16:39:26.296Z,39.66
2023-04-10T16:43:24.873Z,42.03
2023-04-10T16:46:44.392Z,43.58
2023-04-10T16:50:25.610Z,45.33
2023-04-10T16:54:03.925Z,46.65
2023-04-10T16:58:01.763Z,48.25
2023-04-10T17:01:45.761Z,49.18
2023-04-10T17:04:58.270Z,49.52
2023-04-10T17:08:36.899Z,49.94
2023-04-10T17:12:18.676Z,51.21
2023-04-10T17:15:55.382Z,52.68
2023-04-10T17:30:02.139Z,55.75
2023-04-10T17:32:30.491Z,56.29
2023-04-10T17:34:58.444Z,57.18
2023-04-10T17:37:26.525Z,57.66
2023-04-10T17:39:54.722Z,57.81
2023-04-10T17:42:23.347Z,58.49
2023-04-10T17:44:51.409Z,58.43
2023-04-10T17:47:19.169Z,59.51
2023-04-10T17:49:46.965Z,60.48
2023-04-10T17:52:14.824Z,60.91
2023-04-10T17:54:42.824Z,61.03
2023-04-10T17:57:10.644Z,61.01
2023-04-10T17:59:39.512Z,61.94
2023-04-10T18:02:07.767Z,62.58
2023-04-10T18:04:35.932Z,63.54
2023-04-10T18:07:04.663Z,64.66
2023-04-10T18:09:32.630Z,65.06
2023-04-10T18:12:01.611Z,64.99
2023-04-10T18:14:29.380Z,64.94
2023-04-10T18:16:57.585Z,64.77
2023-04-10T18:19:25.590Z,64.84
2023-04-10T18:21:53.691Z,65.45
2023-04-10T18:24:21.844Z,65.72
2023-04-10T18:26:50.118Z,65.74
2023-04-10T18:29:17.896Z,65.62
2023-04-10T18:31:46.966Z,66.06
2023-04-10T18:34:15.164Z,66.76
2023-04-10T18:36:43.262Z,67.08
2023-04-10T18:39:11.438Z,67.47
2023-04-10T18:41:39.614Z,68.07
2023-04-10T18:44:11.384Z,68.73
2023-04-10T18:46:42.722Z,69.25
2023-04-10T18:49:12.564Z,69.75
2023-04-10T18:51:41.905Z,69.98
2023-04-10T18:54:10.021Z,70.06
2023-04-10T18:56:38.883Z,70.46
2023-04-10T18:59:08.219Z,70.63
2023-04-10T19:01:36.760Z,70.24
2023-04-10T19:04:04.764Z,70.30
2023-04-10T19:07:05.128Z,70.40
2023-04-10T19:09:33.841Z,70.27
2023-04-10T19:12:02.366Z,70.53
2023-04-10T19:14:30.210Z,70.76
2023-04-10T19:16:58.353Z,71.06
2023-04-10T19:19:26.183Z,71.47
2023-04-10T19:21:55.095Z,72.04
2023-04-10T19:24:23.151Z,72.36
2023-04-10T19:26:53.612Z,72.56
2023-04-10T19:29:22.435Z,72.76
2023-04-10T19:31:51.294Z,72.95
2023-04-10T19:34:19.605Z,73.18
2023-04-10T19:36:47.765Z,73.48
2023-04-10T19:39:16.412Z,73.67
2023-04-10T19:41:44.167Z,73.51
2023-04-10T19:44:12.233Z,73.35
2023-04-10T19:46:40.465Z,73.61
2023-04-10T19:49:08.254Z,73.35
2023-04-10T19:51:36.370Z,73.19
2023-04-10T19:54:05.642Z,73.25
2023-04-10T19:56:34.927Z,73.69
2023-04-10T19:59:03.002Z,73.86
2023-04-10T20:01:31.061Z,73.96
2023-04-10T20:03:59.483Z,74.13
2023-04-10T20:06:27.494Z,74.50
2023-04-10T20:08:55.731Z,74.89
2023-04-10T20:11:24.938Z,75.21
2023-04-10T20:13:53.027Z,75.33
2023-04-10T20:16:21.017Z,75.39
2023-04-10T20:18:48.803Z,75.38
2023-04-10T20:21:16.680Z,75.62
2023-04-10T20:23:44.426Z,75.94
2023-04-10T20:26:13.300Z,75.92
2023-04-10T20:28:41.075Z,76.17
2023-04-10T20:31:10.875Z,76.41
2023-04-10T20:33:38.696Z,76.58
2023-04-10T20:36:06.910Z,76.94
2023-04-10T20:38:34.742Z,77.14
2023-04-10T20:41:03.083Z,77.23
2023-04-10T20:43:31.108Z,77.46
2023-04-10T20:46:06.775Z,77.60
2023-04-10T20:48:38.291Z,77.80
2023-04-10T20:51:06.442Z,78.03
2023-04-10T20:53:34.170Z,78.18
2023-04-10T20:56:03.575Z,78.39
2023-04-10T20:58:33.342Z,78.60
2023-04-10T21:01:01.274Z,78.65
2023-04-10T21:03:30.242Z,78.65
2023-04-10T21:05:58.031Z,78.82
2023-04-10T21:08:25.931Z,78.94
2023-04-10T21:10:53.654Z,79.08
2023-04-10T21:13:21.484Z,79.27
2023-04-10T21:15:49.626Z,79.63
2023-04-10T21:18:17.447Z,80.35
2023-04-10T21:20:45.240Z,80.56
2023-04-10T21:23:13.043Z,80.61
2023-04-10T21:25:40.696Z,80.90
2023-04-10T21:28:08.427Z,81.11
2023-04-10T21:30:37.020Z,81.05
2023-04-10T21:33:05.902Z,80.78
2023-04-10T21:35:33.637Z,80.84
2023-04-10T21:38:03.911Z,80.86
2023-04-10T21:40:34.374Z,80.86
2023-04-10T21:43:02.852Z,80.84
2023-04-10T21:45:31.546Z,80.85
2023-04-10T21:48:00.442Z,80.98
2023-04-10T21:50:28.795Z,81.00
2023-04-10T21:52:56.689Z,81.06
2023-04-10T21:55:24.551Z,81.20
2023-04-10T21:57:52.271Z,81.42
2023-04-10T22:00:22.538Z,81.60
2023-04-10T22:02:51.032Z,81.44
2023-04-10T22:05:19.117Z,81.43
2023-04-10T22:07:49.196Z,81.44
2023-04-10T22:10:16.973Z,81.59
2023-04-10T22:12:47.631Z,81.88
2023-04-10T22:15:17.230Z,82.14
2023-04-10T22:17:44.886Z,82.36
2023-04-10T22:20:12.738Z,82.56
2023-04-10T22:22:40.715Z,82.85
2023-04-10T22:25:08.519Z,82.99
2023-04-10T22:27:36.222Z,82.82
2023-04-10T22:30:04.755Z,82.74
2023-04-10T22:32:32.598Z,82.77
2023-04-10T22:35:00.720Z,82.77
2023-04-10T22:37:28.488Z,82.87
2023-04-10T22:39:56.376Z,83.02
2023-04-10T22:42:24.217Z,83.13
2023-04-10T22:44:52.101Z,83.20
2023-04-10T22:47:19.944Z,83.29
2023-04-10T22:49:47.641Z,83.54
2023-04-10T22:52:16.416Z,83.77
2023-04-10T22:54:44.156Z,84.09
2023-04-10T22:57:12.008Z,84.32
2023-04-10T22:59:39.792Z,84.31
2023-04-10T23:02:09.768Z,84.26
2023-04-10T23:04:37.767Z,84.32
2023-04-10T23:07:05.802Z,84.49
2023-04-10T23:09:33.583Z,84.48
2023-04-10T23:12:01.901Z,84.44
2023-04-10T23:14:29.622Z,84.44
2023-04-10T23:16:57.463Z,84.64
2023-04-10T23:19:25.285Z,84.98
2023-04-10T23:21:53.776Z,85.19
2023-04-10T23:24:21.544Z,85.18
2023-04-10T23:26:49.259Z,85.17
2023-04-10T23:29:17.211Z,85.17
2023-04-10T23:31:45.024Z,85.25
2023-04-10T23:34:13.061Z,85.31
2023-04-10T23:36:40.822Z,85.39
2023-04-10T23:39:08.752Z,85.42
2023-04-10T23:41:36.554Z,85.45
2023-04-10T23:44:04.380Z,85.50
2023-04-10T23:46:32.189Z,85.57
2023-04-10T23:49:00.530Z,85.70
2023-04-10T23:51:28.294Z,85.87
2023-04-10T23:53:55.988Z,85.92
2023-04-10T23:56:29.159Z,85.93
2023-04-10T23:58:57.156Z,85.91
